• Join FlightAware (Why Join?)
  • Login
  • US Flag 
03:20PM EDT


 

Airport Tracker/Info


-or-


 

Live Flight TrackerFlight Track Log ✈ CES5647 ✈ 11-Dec-2013 ✈ ZSSS / SHA - ZSWY / WUS

Flight Track Log - Related Links

Times and Time Zones

All times are in EST time to prevent confusion due to time zone crossing. See the CES5647 flight status page for this flight to view local times or setup timezone preferences in your user account.

Time Position Orientation Groundspeed Altitude Reporting Facility
EST Latitude Longitude Course Direction KTS MPH feet Rate Location/Type
08:01AM 30.1155 120.2702 221° Southwest  Level Estimated
08:02AM 30.0612 120.2175 220° Southwest  Level Estimated
08:03AM 30.0068 120.1649 220° Southwest  Level Estimated
08:04AM 29.9524 120.1123 220° Southwest  Level Estimated
08:05AM 29.8980 120.0598 220° Southwest  Level Estimated
08:06AM 29.8436 120.0073 220° Southwest  Level Estimated
08:07AM 29.7891 119.9549 220° Southwest  Level Estimated
08:08AM 29.7346 119.9026 220° Southwest  Level Estimated
08:09AM 29.6801 119.8503 220° Southwest  Level Estimated
08:10AM 29.6256 119.7981 220° Southwest  Level Estimated
08:11AM 29.5711 119.7459 220° Southwest  Level Estimated
08:12AM 29.5166 119.6938 220° Southwest  Level Estimated
08:13AM 29.4620 119.6417 220° Southwest  Level Estimated
08:14AM 29.4074 119.5897 220° Southwest  Level Estimated
08:15AM 29.3528 119.5378 220° Southwest  Level Estimated
08:16AM 29.2982 119.4859 220° Southwest  Level Estimated
08:17AM 29.2467 119.4371 220° Southwest  Level Estimated
08:18AM 29.1953 119.3884 220° Southwest  Level Estimated
08:19AM 29.1438 119.3397 220° Southwest  Level Estimated
08:20AM 29.0923 119.2910 220° Southwest  Level Estimated
08:21AM 29.0408 119.2424 220° Southwest  Level Estimated
08:22AM 28.9893 119.1939 219° Southwest  Level Estimated
08:23AM 28.9377 119.1454 219° Southwest  Level Estimated
08:24AM 28.8862 119.0969 219° Southwest  Level Estimated
08:25AM 28.8346 119.0485 219° Southwest  Level Estimated
08:26AM 28.7830 119.0002 219° Southwest  Level Estimated
08:27AM 28.7314 118.9519 219° Southwest  Level Estimated
08:28AM 28.6798 118.9036 219° Southwest  Level Estimated
08:29AM 28.6281 118.8554 219° Southwest  Level Estimated
08:30AM 28.5765 118.8073 219° Southwest  Level Estimated
08:31AM 28.5248 118.7591 219° Southwest  Level Estimated
08:32AM 28.4731 118.7111 219° Southwest  Level Estimated
08:33AM 28.4214 118.6631 219° Southwest  Level Estimated
08:34AM 28.3696 118.6151 219° Southwest  Level Estimated
08:35AM 28.3179 118.5672 219° Southwest  Level Estimated
08:36AM 28.2661 118.5193 219° Southwest  Level Estimated
08:37AM 28.2143 118.4715 219° Southwest  Level Estimated
08:38AM 28.1625 118.4237 219° Southwest  Level Estimated
08:39AM 28.0996 118.3657 219° Southwest  Level Estimated
08:40AM 28.0367 118.3078 219° Southwest  Level Estimated
08:41AM 27.9737 118.2500 219° Southwest  Level Estimated
08:42AM 27.9107 118.1922 219° Southwest  Level Estimated
08:43AM 27.8477 118.1345 219° Southwest  Level Estimated
08:44AM 27.7847 118.0769 219° Southwest  Level Estimated
08:45AM 27.7216 118.0193 219° Southwest  Level Estimated
08:46AM 27.7019 118.0014 219° Southwest  Level Estimated
08:47AM 27.7019 118.0014 348° North  Level Estimated
08:48AM 27.7019 118.0014 348° North  Level Estimated
08:49AM 27.7019 118.0014 348° North  Level Estimated
08:50AM 27.7019 118.0014 348° North  Level Estimated
08:51AM 27.7019 118.0014 348° North  Level Estimated
08:52AM 27.7019 118.0014 348° North  Level Estimated
08:53AM 27.7019 118.0014 348° North  Level Estimated